In Rescue
 
Open Full Screen Window  High Contrast Mode
Wind Gusting 00 knots
04
March 04, 2021 5:18 AM EST
Weather Information
Wind Direction
  330 °
Wind Speed
  04 kt (5 mph)
Wind Gust
  00 kt (0 mph)
Altimeter
30.09 in
Visibility
10 SM
Temperature
01° C
34° F
Dewpoint
-02° C
28° F
Humidity
81%
1hr Rain Fall
00.00 in.
24hr Rain Fall
00.00 in.
Sky Condition
Overcast @ 2,100 ft
MVFR

METAR KONZ 041018Z AUTO 33004KT 10SM OVC021 01/M02 A3009 RMK AO2 T00091017

FAA Disclaimer: The data displayed is for advisory purposes only and is not to be used for flight planning or operations.